ポートルイス の空港の天気 - METARとTAF

サー・シウサガル・ラングラーム国際空港 ( FIMP / MRU ) - モーリシャス ポートルイス
飛行場実況気象(Metar)
観測時間07/16 10:00 MUT (07/16 06:00 UTC)
風向・風速南 3m/s
視程10km以上
天気現象
全天の8割程度の雲 雲底高度 460m
気温24℃
湿度74%
気圧1019hPa
METARFIMP 160600Z 18005KT 9999 BKN015 24/19 Q1019
過去の天気等 Google飛行場航空写真 Wunderground天気予報

過去48時間のMETAR

飛行場予報(TAF)
発表時間: 7/16 09:05 MUT (7/16 05:05 UTC)
予報対象時間: 16日10時 MUT ~ 17日16時 MUT
風向・風速南東 3m/s
視程10km以上
全天の4割程度の雲 雲底高度 520m
16日19時 MUT ~ 17日7時 MUT に 確率 30% で一時的に
天気現象弱いしゅう雨
少しの雲 雲底高度 300m
全天の4割程度の雲 雲底高度 460m
16日22時 MUT ~ 16日24時 MUT に徐々に
風向・風速北北西 2m/s
17日8時 MUT ~ 17日10時 MUT に徐々に
風向・風速南南東 5m/s
TAF FIMP 160505Z 1606/1712 13005KT 9999 SCT017
PROB30 TEMPO 1615/1703 -SHRA FEW010 SCT015
BECMG 1618/1620 33003KT
BECMG 1704/1706 15010KT